Time;durP1;ratioP1;P1;durP2;ratioP2;P2;SDS_P1;SDS_P2;PMS_P1;PMS_P2;Temp;Humidity;BMP_temperature;BMP_pressure;BME280_temperature;BME280_humidity;BME280_pressure;Samples;Min_cycle;Max_cycle;Signal;HPM_P1;HPM_P2
2022/09/25 00:00:28;;;;;;;6.27;5.80;;;;;;;;;;5088236;28;20513;-66
2022/09/25 00:02:54;;;;;;;7.63;7.00;;;;;;;;;;5087150;28;20480;-66
2022/09/25 00:05:20;;;;;;;6.30;5.90;;;;;;;;;;5089841;28;20447;-66
2022/09/25 00:07:46;;;;;;;6.70;6.30;;;;;;;;;;5087956;28;20935;-66
2022/09/25 00:10:12;;;;;;;7.17;6.47;;;;;;;;;;5088347;28;20424;-66
2022/09/25 00:12:38;;;;;;;6.83;6.40;;;;;;;;;;5088610;28;20561;-66
2022/09/25 00:15:05;;;;;;;6.60;6.20;;;;;;;;;;5089514;28;20486;-66
2022/09/25 00:17:32;;;;;;;5.90;5.50;;;;;;;;;;5087204;28;20486;-67
2022/09/25 00:19:58;;;;;;;7.40;6.70;;;;;;;;;;5070879;28;20432;-66
2022/09/25 00:22:25;;;;;;;6.57;5.63;;;;;;;;;;5089396;28;20840;-66
2022/09/25 00:24:51;;;;;;;5.97;5.67;;;;;;;;;;5087755;28;20447;-66
2022/09/25 00:27:18;;;;;;;5.47;5.30;;;;;;;;;;5088520;28;20523;-66
2022/09/25 00:29:44;;;;;;;6.57;6.00;;;;;;;;;;5088738;28;20424;-66
2022/09/25 00:32:11;;;;;;;6.73;6.23;;;;;;;;;;5087032;28;20429;-66
2022/09/25 00:34:37;;;;;;;5.00;4.37;;;;;;;;;;5088454;28;20567;-66
2022/09/25 00:37:03;;;;;;;4.93;4.50;;;;;;;;;;5089524;28;20440;-66
2022/09/25 00:39:30;;;;;;;5.83;5.37;;;;;;;;;;5089244;28;20776;-66
2022/09/25 00:41:56;;;;;;;15.20;6.13;;;;;;;;;;5086221;28;20480;-66
2022/09/25 00:44:47;;;;;;;5.80;5.40;;;;;;;;;;5086742;28;20443;-66
2022/09/25 00:47:15;;;;;;;5.90;5.57;;;;;;;;;;5087144;28;20441;-66
2022/09/25 00:49:41;;;;;;;5.30;5.07;;;;;;;;;;5088534;28;20428;-66
2022/09/25 00:52:08;;;;;;;4.50;4.20;;;;;;;;;;5088282;28;20493;-66
2022/09/25 00:54:40;;;;;;;5.37;5.13;;;;;;;;;;5088292;28;20936;-67
2022/09/25 00:57:08;;;;;;;4.87;4.67;;;;;;;;;;5088865;28;20436;-66
2022/09/25 00:59:36;;;;;;;5.03;4.83;;;;;;;;;;5086252;28;20512;-66
2022/09/25 01:02:02;;;;;;;6.83;4.97;;;;;;;;;;5085037;28;20574;-66
2022/09/25 01:04:31;;;;;;;4.67;4.37;;;;;;;;;;5088704;28;20520;-67
2022/09/25 01:06:58;;;;;;;5.10;4.70;;;;;;;;;;5088007;28;20440;-66
2022/09/25 01:09:24;;;;;;;4.83;4.37;;;;;;;;;;5088290;28;20452;-66
2022/09/25 01:11:50;;;;;;;6.23;4.37;;;;;;;;;;5086290;28;20486;-66
2022/09/25 01:14:16;;;;;;;4.70;4.43;;;;;;;;;;5088146;28;20420;-66
2022/09/25 01:16:46;;;;;;;7.10;4.10;;;;;;;;;;5087193;28;20530;-66
2022/09/25 01:19:12;;;;;;;3.63;3.40;;;;;;;;;;5086664;28;20428;-66
2022/09/25 01:21:38;;;;;;;4.17;3.97;;;;;;;;;;5092531;28;20480;-66
2022/09/25 01:24:13;;;;;;;4.63;4.43;;;;;;;;;;5091695;28;20458;-66
2022/09/25 01:26:58;;;;;;;10.93;4.20;;;;;;;;;;5083900;28;20467;-66
2022/09/25 01:29:39;;;;;;;4.40;4.20;;;;;;;;;;5090472;28;20432;-66
2022/09/25 01:32:19;;;;;;;4.40;4.13;;;;;;;;;;5088651;28;20447;-66
2022/09/25 01:34:57;;;;;;;5.43;4.43;;;;;;;;;;5089099;28;20471;-66
2022/09/25 01:37:45;;;;;;;4.23;4.07;;;;;;;;;;5092031;28;20424;-66
2022/09/25 01:40:16;;;;;;;4.90;4.70;;;;;;;;;;5090366;28;20488;-66
2022/09/25 01:42:48;;;;;;;5.77;3.83;;;;;;;;;;5090979;28;20490;-66
2022/09/25 01:45:17;;;;;;;4.20;3.97;;;;;;;;;;5090811;28;20809;-66
2022/09/25 01:47:45;;;;;;;3.33;3.23;;;;;;;;;;5090464;28;20436;-66
2022/09/25 01:50:17;;;;;;;4.50;4.30;;;;;;;;;;5090277;28;20431;-66
2022/09/25 01:52:46;;;;;;;4.00;3.70;;;;;;;;;;5091324;28;20493;-66
2022/09/25 01:55:18;;;;;;;5.03;3.70;;;;;;;;;;5090674;28;20439;-66
2022/09/25 01:57:54;;;;;;;3.53;3.33;;;;;;;;;;5091214;28;20466;-66
2022/09/25 02:00:22;;;;;;;3.83;3.73;;;;;;;;;;5089724;28;20518;-66
2022/09/25 02:02:54;;;;;;;3.40;3.30;;;;;;;;;;5090122;28;20570;-66
2022/09/25 02:05:25;;;;;;;3.20;3.13;;;;;;;;;;5091087;28;20509;-66
2022/09/25 02:07:55;;;;;;;4.30;3.30;;;;;;;;;;5091570;28;20466;-66
2022/09/25 02:10:23;;;;;;;5.10;3.60;;;;;;;;;;5090657;28;20482;-66
2022/09/25 02:12:50;;;;;;;6.10;3.80;;;;;;;;;;5091659;28;20505;-67
2022/09/25 02:15:19;;;;;;;4.03;3.60;;;;;;;;;;5089796;28;20436;-66
2022/09/25 02:20:50;;;;;;;5.23;3.40;;;;;;;;;;5091012;28;20997;-66
2022/09/25 02:23:43;;;;;;;6.67;4.57;;;;;;;;;;5090820;28;20437;-66
2022/09/25 02:26:13;;;;;;;11.30;3.73;;;;;;;;;;5060844;28;20479;-66
2022/09/25 02:28:39;;;;;;;4.67;4.43;;;;;;;;;;5090726;28;20788;-66
2022/09/25 02:31:07;;;;;;;4.30;4.17;;;;;;;;;;5088150;28;20940;-66
2022/09/25 02:33:34;;;;;;;6.20;5.30;;;;;;;;;;5091143;28;20485;-66
2022/09/25 02:36:01;;;;;;;5.90;5.50;;;;;;;;;;5090816;28;20433;-66
2022/09/25 02:38:27;;;;;;;6.50;5.90;;;;;;;;;;5091239;28;20454;-66
2022/09/25 02:40:55;;;;;;;10.57;7.10;;;;;;;;;;5088657;28;20687;-66
2022/09/25 02:43:31;;;;;;;7.10;6.40;;;;;;;;;;5090812;28;20449;-66
2022/09/25 02:46:01;;;;;;;9.33;6.80;;;;;;;;;;5087793;28;20511;-66
2022/09/25 02:48:27;;;;;;;6.30;5.90;;;;;;;;;;5091220;28;20450;-66
2022/09/25 02:51:11;;;;;;;7.73;6.73;;;;;;;;;;5090218;28;20441;-66
2022/09/25 02:53:40;;;;;;;8.07;7.37;;;;;;;;;;5091396;28;20209;-66
2022/09/25 02:56:06;;;;;;;10.60;5.83;;;;;;;;;;5089794;28;20430;-66
2022/09/25 02:58:34;;;;;;;7.13;6.60;;;;;;;;;;5090333;28;20884;-66
2022/09/25 03:01:03;;;;;;;6.57;6.17;;;;;;;;;;5088888;28;20567;-66
2022/09/25 03:03:30;;;;;;;6.53;5.73;;;;;;;;;;5091267;28;20417;-66
2022/09/25 03:05:57;;;;;;;9.33;4.90;;;;;;;;;;5085826;28;20424;-66
2022/09/25 03:08:40;;;;;;;4.97;4.50;;;;;;;;;;5088733;28;20460;-66
2022/09/25 03:11:11;;;;;;;4.30;4.10;;;;;;;;;;5088236;28;20523;-66
2022/09/25 03:13:37;;;;;;;5.40;5.20;;;;;;;;;;5090144;28;20437;-67
2022/09/25 03:16:03;;;;;;;6.63;6.00;;;;;;;;;;5089671;28;20855;-66
2022/09/25 03:18:30;;;;;;;4.33;4.03;;;;;;;;;;5090505;28;20432;-66
2022/09/25 03:20:56;;;;;;;6.80;4.70;;;;;;;;;;5088861;28;20432;-66
2022/09/25 03:23:22;;;;;;;4.63;4.40;;;;;;;;;;5090716;28;20448;-66
2022/09/25 03:25:48;;;;;;;5.80;5.40;;;;;;;;;;5089360;28;20468;-66
2022/09/25 03:28:14;;;;;;;5.90;4.53;;;;;;;;;;5089227;28;20480;-67
2022/09/25 03:30:40;;;;;;;5.80;5.33;;;;;;;;;;5089204;28;20987;-66
2022/09/25 03:33:09;;;;;;;10.57;6.10;;;;;;;;;;5089016;28;20428;-66
2022/09/25 03:35:35;;;;;;;5.77;5.30;;;;;;;;;;5088696;28;20432;-66
2022/09/25 03:38:01;;;;;;;7.90;6.30;;;;;;;;;;5088625;28;20919;-66
2022/09/25 03:40:27;;;;;;;7.10;6.40;;;;;;;;;;5089181;28;20440;-66
2022/09/25 03:42:53;;;;;;;7.00;6.50;;;;;;;;;;5089414;28;21016;-66
2022/09/25 03:45:19;;;;;;;10.40;6.57;;;;;;;;;;5089716;28;20806;-67
2022/09/25 03:47:45;;;;;;;10.63;7.07;;;;;;;;;;5086910;28;20925;-67
2022/09/25 03:50:10;;;;;;;7.77;6.70;;;;;;;;;;5089280;28;20436;-66
2022/09/25 03:52:37;;;;;;;15.33;7.20;;;;;;;;;;5089526;28;20467;-66
2022/09/25 03:55:03;;;;;;;8.43;6.70;;;;;;;;;;5088378;28;20545;-66
2022/09/25 03:57:29;;;;;;;6.10;5.70;;;;;;;;;;5087947;28;20574;-66
2022/09/25 04:00:00;;;;;;;9.23;6.30;;;;;;;;;;5089016;28;20475;-66
2022/09/25 04:02:26;;;;;;;7.07;6.27;;;;;;;;;;5087280;28;20492;-66
2022/09/25 04:04:53;;;;;;;6.60;6.20;;;;;;;;;;5087605;28;20432;-66
2022/09/25 04:07:19;;;;;;;8.33;7.47;;;;;;;;;;5089196;28;20440;-66
2022/09/25 04:09:45;;;;;;;13.57;9.37;;;;;;;;;;5088331;28;20454;-66
2022/09/25 04:12:11;;;;;;;15.40;9.73;;;;;;;;;;5088394;28;20436;-66
2022/09/25 04:14:37;;;;;;;20.03;10.33;;;;;;;;;;5089671;28;20437;-66
2022/09/25 04:17:03;;;;;;;17.73;10.07;;;;;;;;;;5088000;28;20443;-66
2022/09/25 04:19:30;;;;;;;17.97;11.80;;;;;;;;;;5089213;28;20520;-67
2022/09/25 04:21:56;;;;;;;22.90;11.90;;;;;;;;;;5085812;28;21046;-66
2022/09/25 04:27:07;;;;;;;20.60;11.90;;;;;;;;;;5087913;28;20415;-66
2022/09/25 04:29:33;;;;;;;19.73;12.23;;;;;;;;;;5086959;28;20431;-66
2022/09/25 04:34:44;;;;;;;21.40;14.03;;;;;;;;;;5089887;28;20459;-66
2022/09/25 04:37:12;;;;;;;25.10;12.40;;;;;;;;;;5087814;28;20455;-66
2022/09/25 04:39:38;;;;;;;18.80;12.30;;;;;;;;;;5088293;28;20432;-66
2022/09/25 04:42:05;;;;;;;23.77;13.30;;;;;;;;;;5088958;28;20999;-66
2022/09/25 04:44:30;;;;;;;38.20;14.20;;;;;;;;;;5089120;28;20432;-66
2022/09/25 04:46:56;;;;;;;32.90;14.00;;;;;;;;;;5086577;28;20440;-67
2022/09/25 04:49:22;;;;;;;32.70;17.30;;;;;;;;;;5089102;28;20538;-66
2022/09/25 04:51:48;;;;;;;29.73;15.30;;;;;;;;;;5088271;28;20503;-66
2022/09/25 04:54:15;;;;;;;44.33;16.27;;;;;;;;;;5089584;28;20440;-66
2022/09/25 04:56:44;;;;;;;29.50;16.03;;;;;;;;;;5091340;28;20431;-67
2022/09/25 04:59:16;;;;;;;31.10;16.23;;;;;;;;;;5090329;28;20472;-66
2022/09/25 05:01:42;;;;;;;29.03;16.60;;;;;;;;;;5091754;28;20472;-66
2022/09/25 05:04:08;;;;;;;26.40;14.83;;;;;;;;;;5092739;28;20847;-66
2022/09/25 05:06:34;;;;;;;29.80;14.40;;;;;;;;;;5091944;28;20435;-66
2022/09/25 05:09:02;;;;;;;31.00;16.70;;;;;;;;;;5092814;28;20428;-66
2022/09/25 05:11:28;;;;;;;35.13;15.57;;;;;;;;;;5092097;28;20946;-66
2022/09/25 05:13:54;;;;;;;22.03;12.83;;;;;;;;;;5090859;28;20440;-66
2022/09/25 05:16:20;;;;;;;30.00;12.70;;;;;;;;;;5091551;28;20469;-66
2022/09/25 05:18:46;;;;;;;26.23;13.87;;;;;;;;;;5092197;28;20812;-66
2022/09/25 05:21:12;;;;;;;18.57;13.30;;;;;;;;;;5090214;28;20563;-66
2022/09/25 05:23:38;;;;;;;24.33;12.10;;;;;;;;;;5092105;28;20444;-66
2022/09/25 05:26:04;;;;;;;13.27;10.37;;;;;;;;;;5091128;28;20429;-67
2022/09/25 05:28:30;;;;;;;14.60;10.80;;;;;;;;;;5093062;28;20490;-66
2022/09/25 05:31:03;;;;;;;17.97;10.93;;;;;;;;;;5092117;28;20436;-67
2022/09/25 05:33:29;;;;;;;14.23;10.93;;;;;;;;;;5090828;28;20853;-66
2022/09/25 05:35:59;;;;;;;14.40;10.53;;;;;;;;;;5089859;28;20862;-66
2022/09/25 05:38:25;;;;;;;16.53;10.20;;;;;;;;;;5092044;28;20416;-66
2022/09/25 05:40:52;;;;;;;11.20;9.50;;;;;;;;;;5091281;28;20443;-66
2022/09/25 05:43:17;;;;;;;18.70;10.00;;;;;;;;;;5091350;28;20786;-66
2022/09/25 05:45:43;;;;;;;16.33;10.40;;;;;;;;;;5090478;28;20490;-67
2022/09/25 05:48:09;;;;;;;13.43;9.73;;;;;;;;;;5090944;28;20502;-67
2022/09/25 05:50:36;;;;;;;13.27;9.97;;;;;;;;;;5089742;28;20451;-67
2022/09/25 05:53:03;;;;;;;11.10;9.97;;;;;;;;;;5092299;28;20462;-67
2022/09/25 05:55:29;;;;;;;11.27;10.00;;;;;;;;;;5088998;28;20842;-67
2022/09/25 05:58:05;;;;;;;17.27;10.30;;;;;;;;;;5089987;28;20952;-68
2022/09/25 06:00:31;;;;;;;12.23;10.13;;;;;;;;;;5090399;28;20464;-67
2022/09/25 06:02:58;;;;;;;10.80;9.53;;;;;;;;;;5090001;28;20655;-67
2022/09/25 06:05:24;;;;;;;16.87;10.60;;;;;;;;;;5087660;28;20451;-67
2022/09/25 06:07:54;;;;;;;21.90;12.13;;;;;;;;;;5089920;28;20440;-67
2022/09/25 06:10:20;;;;;;;18.33;11.20;;;;;;;;;;5092043;28;20864;-67
2022/09/25 06:12:46;;;;;;;13.37;11.97;;;;;;;;;;5091473;28;20558;-67
2022/09/25 06:15:12;;;;;;;13.60;11.00;;;;;;;;;;5089779;28;20424;-67
2022/09/25 06:17:38;;;;;;;17.30;11.47;;;;;;;;;;5084147;28;20441;-67
2022/09/25 06:20:04;;;;;;;19.37;12.17;;;;;;;;;;5090027;28;20464;-66
2022/09/25 06:22:30;;;;;;;14.87;10.90;;;;;;;;;;5090625;28;20487;-66
2022/09/25 06:24:56;;;;;;;19.37;11.73;;;;;;;;;;5090463;28;20443;-67
2022/09/25 06:27:22;;;;;;;14.87;11.40;;;;;;;;;;5088807;28;20438;-67
2022/09/25 06:29:48;;;;;;;16.60;11.63;;;;;;;;;;5089921;28;20528;-66
2022/09/25 06:32:15;;;;;;;17.60;12.43;;;;;;;;;;5090148;28;20433;-67
2022/09/25 06:34:41;;;;;;;18.87;12.10;;;;;;;;;;5089611;28;20455;-66
2022/09/25 06:37:07;;;;;;;16.30;11.80;;;;;;;;;;5090860;28;20900;-66
2022/09/25 06:39:34;;;;;;;20.53;12.43;;;;;;;;;;5090827;28;20842;-66
2022/09/25 06:42:00;;;;;;;15.67;12.40;;;;;;;;;;5088341;28;20484;-66
2022/09/25 06:44:27;;;;;;;18.20;11.67;;;;;;;;;;5089463;28;20798;-66
2022/09/25 06:46:53;;;;;;;14.73;11.77;;;;;;;;;;5090295;28;20420;-67
2022/09/25 06:49:19;;;;;;;16.70;12.80;;;;;;;;;;5087810;28;20425;-67
2022/09/25 06:51:45;;;;;;;20.23;12.73;;;;;;;;;;5082774;28;20837;-67
2022/09/25 06:54:11;;;;;;;21.40;11.73;;;;;;;;;;5086719;28;20456;-67
2022/09/25 06:56:38;;;;;;;21.13;13.17;;;;;;;;;;5087974;28;20449;-67
2022/09/25 06:59:04;;;;;;;19.27;12.60;;;;;;;;;;5088950;28;20534;-67
2022/09/25 07:01:30;;;;;;;21.07;12.73;;;;;;;;;;5088157;28;20562;-66
2022/09/25 07:03:56;;;;;;;31.10;13.87;;;;;;;;;;5089126;28;20532;-67
2022/09/25 07:06:25;;;;;;;28.33;12.93;;;;;;;;;;5090223;28;20408;-75
2022/09/25 07:08:52;;;;;;;16.13;12.37;;;;;;;;;;5089065;28;20787;-68
2022/09/25 07:11:21;;;;;;;21.77;16.23;;;;;;;;;;5090449;28;20429;-68
2022/09/25 07:13:53;;;;;;;23.03;14.50;;;;;;;;;;5087557;28;20511;-68
2022/09/25 07:16:20;;;;;;;21.60;14.00;;;;;;;;;;5089378;28;20435;-67
2022/09/25 07:18:46;;;;;;;15.83;11.60;;;;;;;;;;5088487;28;20424;-68
2022/09/25 07:21:16;;;;;;;15.00;11.63;;;;;;;;;;5089862;28;20477;-67
2022/09/25 07:23:42;;;;;;;17.50;12.40;;;;;;;;;;5090260;28;20985;-67
2022/09/25 07:26:13;;;;;;;20.47;13.17;;;;;;;;;;5089884;28;20444;-69
2022/09/25 07:28:40;;;;;;;19.60;14.20;;;;;;;;;;5087833;28;20465;-69
2022/09/25 07:31:16;;;;;;;18.50;13.70;;;;;;;;;;5089409;28;20981;-67
2022/09/25 07:33:42;;;;;;;20.90;13.67;;;;;;;;;;5090327;28;20420;-67
2022/09/25 07:36:09;;;;;;;24.83;12.60;;;;;;;;;;5088007;28;20515;-68
2022/09/25 07:38:35;;;;;;;16.57;11.17;;;;;;;;;;5089989;28;20420;-69
2022/09/25 07:41:02;;;;;;;18.37;13.07;;;;;;;;;;5087252;28;20574;-68
2022/09/25 07:43:28;;;;;;;19.07;12.87;;;;;;;;;;5088250;28;20924;-69
2022/09/25 07:45:54;;;;;;;17.90;11.40;;;;;;;;;;5089625;28;20424;-68
2022/09/25 07:48:20;;;;;;;18.13;11.43;;;;;;;;;;5090729;28;20508;-67
2022/09/25 07:50:49;;;;;;;28.13;13.87;;;;;;;;;;5088772;28;20456;-69
2022/09/25 07:53:17;;;;;;;19.60;12.17;;;;;;;;;;5087981;28;20432;-67
2022/09/25 07:55:43;;;;;;;17.23;12.90;;;;;;;;;;5090116;28;20421;-69
2022/09/25 07:58:10;;;;;;;19.73;12.43;;;;;;;;;;5083921;28;20933;-68
2022/09/25 08:00:36;;;;;;;16.40;12.00;;;;;;;;;;5088457;28;20468;-68
2022/09/25 08:03:02;;;;;;;17.70;11.20;;;;;;;;;;5089773;28;20480;-67
2022/09/25 08:05:29;;;;;;;22.70;13.37;;;;;;;;;;5089466;28;20436;-67
2022/09/25 08:07:54;;;;;;;23.13;12.40;;;;;;;;;;5088153;28;20448;-68
2022/09/25 08:10:21;;;;;;;14.77;11.73;;;;;;;;;;5085435;28;20470;-68
2022/09/25 08:12:47;;;;;;;18.50;11.33;;;;;;;;;;5087510;28;20443;-68
2022/09/25 08:15:13;;;;;;;17.37;12.17;;;;;;;;;;5089304;28;20424;-68
2022/09/25 08:17:40;;;;;;;19.43;12.03;;;;;;;;;;5089158;28;20452;-68
2022/09/25 08:20:06;;;;;;;12.30;10.40;;;;;;;;;;5089180;28;20947;-68
2022/09/25 08:22:32;;;;;;;17.33;11.50;;;;;;;;;;5088852;28;20541;-68
2022/09/25 08:25:01;;;;;;;17.77;12.53;;;;;;;;;;5086683;28;20440;-68
2022/09/25 08:27:28;;;;;;;24.00;11.17;;;;;;;;;;5086587;28;20444;-68
2022/09/25 08:29:54;;;;;;;16.43;11.10;;;;;;;;;;5092318;28;20434;-68
2022/09/25 08:32:19;;;;;;;13.63;10.87;;;;;;;;;;5095911;28;20489;-68
2022/09/25 08:34:46;;;;;;;14.00;11.73;;;;;;;;;;5094548;28;20432;-67
2022/09/25 08:37:12;;;;;;;12.33;10.57;;;;;;;;;;5096334;28;20416;-68
2022/09/25 08:39:38;;;;;;;16.87;11.57;;;;;;;;;;5089397;28;20991;-68
2022/09/25 08:42:04;;;;;;;13.70;10.47;;;;;;;;;;5094883;28;20513;-70
2022/09/25 08:44:40;;;;;;;11.40;9.50;;;;;;;;;;5093809;28;20431;-68
2022/09/25 08:50:05;;;;;;;15.70;10.27;;;;;;;;;;5093698;28;20481;-69
2022/09/25 08:52:31;;;;;;;13.27;10.53;;;;;;;;;;5095306;28;20431;-69
2022/09/25 08:54:57;;;;;;;17.93;14.10;;;;;;;;;;5095301;28;20424;-69
2022/09/25 08:57:29;;;;;;;14.37;10.87;;;;;;;;;;5096067;28;20924;-68
2022/09/25 08:59:57;;;;;;;18.73;12.83;;;;;;;;;;5094973;28;20537;-67
2022/09/25 09:02:27;;;;;;;12.63;8.43;;;;;;;;;;5096112;28;20890;-69
2022/09/25 09:04:55;;;;;;;11.77;9.63;;;;;;;;;;5093262;28;20431;-64
2022/09/25 09:07:41;;;;;;;11.50;10.03;;;;;;;;;;5096228;28;20460;-68
2022/09/25 09:10:17;;;;;;;13.70;9.07;;;;;;;;;;5095667;28;20435;-67
2022/09/25 09:12:47;;;;;;;8.90;8.00;;;;;;;;;;5096141;28;20927;-67
2022/09/25 09:15:25;;;;;;;10.40;8.50;;;;;;;;;;5094532;28;20420;-67
2022/09/25 09:17:52;;;;;;;12.30;8.87;;;;;;;;;;5095816;28;20446;-67
2022/09/25 09:20:19;;;;;;;8.30;7.47;;;;;;;;;;5094687;28;20905;-67
2022/09/25 09:22:51;;;;;;;9.50;7.50;;;;;;;;;;5095126;28;20518;-67
2022/09/25 09:25:20;;;;;;;12.73;11.30;;;;;;;;;;5095734;28;20432;-67
2022/09/25 09:27:46;;;;;;;9.20;7.83;;;;;;;;;;5095621;28;20443;-67
2022/09/25 09:30:18;;;;;;;12.97;8.97;;;;;;;;;;5094164;28;20850;-67
2022/09/25 09:32:58;;;;;;;8.10;7.00;;;;;;;;;;5094470;28;20184;-67
2022/09/25 09:35:24;;;;;;;8.07;6.77;;;;;;;;;;5094432;28;20424;-67
2022/09/25 09:38:09;;;;;;;8.00;6.27;;;;;;;;;;5094602;28;20755;-67
2022/09/25 09:40:35;;;;;;;6.07;5.57;;;;;;;;;;5094250;28;20432;-68
2022/09/25 09:43:04;;;;;;;6.43;5.90;;;;;;;;;;5091128;28;20553;-67
2022/09/25 09:45:38;;;;;;;8.40;6.53;;;;;;;;;;5089230;28;20429;-67
2022/09/25 09:48:20;;;;;;;9.30;6.33;;;;;;;;;;5090539;28;20440;-67
2022/09/25 09:50:46;;;;;;;8.70;6.53;;;;;;;;;;5091870;28;20404;-67
2022/09/25 09:53:18;;;;;;;6.20;5.80;;;;;;;;;;5090132;28;20515;-67
2022/09/25 09:55:47;;;;;;;11.50;7.00;;;;;;;;;;5089790;28;20497;-67
2022/09/25 09:58:19;;;;;;;10.50;6.40;;;;;;;;;;5091405;28;20424;-68
2022/09/25 10:00:47;;;;;;;7.07;6.37;;;;;;;;;;5091076;28;20567;-67
2022/09/25 10:03:27;;;;;;;8.60;6.57;;;;;;;;;;5089789;28;20476;-68
2022/09/25 10:06:01;;;;;;;8.33;7.43;;;;;;;;;;5090237;28;20432;-68
2022/09/25 10:08:27;;;;;;;7.53;6.63;;;;;;;;;;5090892;28;20510;-68
2022/09/25 10:10:53;;;;;;;6.80;6.20;;;;;;;;;;5088579;28;20925;-68
2022/09/25 10:13:24;;;;;;;6.90;6.00;;;;;;;;;;5090107;28;20431;-68
2022/09/25 10:15:57;;;;;;;6.80;6.20;;;;;;;;;;5089448;28;20889;-68
2022/09/25 10:18:26;;;;;;;9.57;5.57;;;;;;;;;;5091636;28;20508;-68
2022/09/25 10:21:04;;;;;;;6.00;5.50;;;;;;;;;;5091149;28;20465;-69
2022/09/25 10:23:45;;;;;;;7.13;5.80;;;;;;;;;;5091224;28;20428;-68
2022/09/25 10:26:25;;;;;;;5.23;4.73;;;;;;;;;;5090062;28;20434;-67
2022/09/25 10:28:51;;;;;;;8.70;5.17;;;;;;;;;;5090206;28;20805;-68
2022/09/25 10:31:18;;;;;;;5.07;4.87;;;;;;;;;;5071336;28;20440;-68
2022/09/25 10:33:58;;;;;;;5.50;5.23;;;;;;;;;;5091865;28;20423;-67
2022/09/25 10:36:35;;;;;;;12.20;6.67;;;;;;;;;;5090269;28;20436;-67
2022/09/25 10:39:02;;;;;;;7.57;5.63;;;;;;;;;;5089671;28;20497;-67
2022/09/25 10:41:31;;;;;;;4.17;3.87;;;;;;;;;;5089580;28;20976;-67
2022/09/25 10:44:01;;;;;;;5.07;4.60;;;;;;;;;;5088892;28;20928;-68
2022/09/25 10:52:06;;;;;;;4.10;3.90;;;;;;;;;;5089873;28;20427;-68
2022/09/25 10:54:33;;;;;;;10.53;7.40;;;;;;;;;;5089517;28;20425;-67
2022/09/25 10:56:59;;;;;;;5.47;4.83;;;;;;;;;;5088609;28;20460;-68
2022/09/25 10:59:26;;;;;;;4.67;4.30;;;;;;;;;;5091129;28;20880;-67
2022/09/25 11:01:54;;;;;;;7.20;5.97;;;;;;;;;;5088874;28;20489;-67
2022/09/25 11:04:26;;;;;;;5.30;5.00;;;;;;;;;;5090894;28;20432;-68
2022/09/25 11:06:56;;;;;;;3.90;3.60;;;;;;;;;;5090964;28;20432;-67
2022/09/25 11:09:22;;;;;;;10.93;3.70;;;;;;;;;;5087111;28;20464;-69
2022/09/25 11:11:51;;;;;;;4.17;3.60;;;;;;;;;;5086652;28;20967;-69
2022/09/25 11:14:21;;;;;;;8.27;5.60;;;;;;;;;;5090405;28;20519;-69
2022/09/25 11:16:56;;;;;;;3.40;3.20;;;;;;;;;;5090279;28;20528;-69
2022/09/25 11:19:29;;;;;;;5.17;4.83;;;;;;;;;;5089191;28;20432;-68
2022/09/25 11:22:15;;;;;;;4.33;4.03;;;;;;;;;;5089173;28;20804;-67
2022/09/25 11:24:49;;;;;;;4.90;4.60;;;;;;;;;;5091033;28;20432;-67
2022/09/25 11:27:18;;;;;;;4.87;4.47;;;;;;;;;;5089978;28;20929;-68
2022/09/25 11:29:44;;;;;;;4.33;3.93;;;;;;;;;;5088877;28;20429;-67
2022/09/25 11:32:16;;;;;;;4.00;3.90;;;;;;;;;;5090110;28;20482;-67
2022/09/25 11:34:57;;;;;;;5.97;5.40;;;;;;;;;;5090397;28;20624;-67
2022/09/25 11:37:23;;;;;;;4.83;4.43;;;;;;;;;;5090197;28;20916;-68
2022/09/25 11:43:06;;;;;;;4.40;3.13;;;;;;;;;;5087960;28;20732;-68
2022/09/25 11:45:36;;;;;;;3.70;3.50;;;;;;;;;;5087743;28;20471;-69
2022/09/25 11:48:21;;;;;;;4.23;3.93;;;;;;;;;;5085962;28;20796;-67
2022/09/25 11:51:08;;;;;;;3.27;3.17;;;;;;;;;;5085992;28;20880;-69
2022/09/25 11:53:48;;;;;;;4.30;4.00;;;;;;;;;;5089065;28;20451;-69
2022/09/25 11:56:31;;;;;;;3.53;3.33;;;;;;;;;;5088828;28;20531;-69
2022/09/25 11:59:05;;;;;;;4.30;4.00;;;;;;;;;;5087751;28;20559;-68
2022/09/25 12:01:33;;;;;;;4.60;4.20;;;;;;;;;;5088041;28;20506;-68
2022/09/25 12:04:06;;;;;;;4.77;3.33;;;;;;;;;;5088414;28;20417;-69
2022/09/25 12:06:32;;;;;;;3.90;3.70;;;;;;;;;;5089729;28;20427;-69
2022/09/25 12:09:10;;;;;;;4.17;3.70;;;;;;;;;;5089616;28;20424;-69
2022/09/25 12:11:44;;;;;;;3.67;3.57;;;;;;;;;;5089206;28;20190;-68
2022/09/25 12:14:30;;;;;;;5.70;4.50;;;;;;;;;;5087148;28;20444;-69
2022/09/25 12:17:05;;;;;;;4.23;3.60;;;;;;;;;;5088680;28;21002;-68
2022/09/25 12:19:50;;;;;;;2.90;2.80;;;;;;;;;;5089942;28;20447;-68
2022/09/25 12:22:22;;;;;;;4.80;4.50;;;;;;;;;;5083627;28;20515;-67
2022/09/25 12:25:00;;;;;;;11.03;4.00;;;;;;;;;;5088558;28;20904;-67
2022/09/25 12:27:26;;;;;;;3.63;3.40;;;;;;;;;;5087119;28;20424;-68
2022/09/25 12:29:56;;;;;;;5.17;3.80;;;;;;;;;;5086747;28;20762;-67
2022/09/25 12:32:42;;;;;;;3.10;2.90;;;;;;;;;;5088612;28;20202;-68
2022/09/25 12:35:09;;;;;;;4.17;3.97;;;;;;;;;;5088896;28;20420;-67
2022/09/25 12:37:42;;;;;;;3.47;3.17;;;;;;;;;;5089126;28;20432;-68
2022/09/25 12:40:34;;;;;;;3.27;3.17;;;;;;;;;;5087791;28;20435;-68
2022/09/25 12:43:02;;;;;;;4.27;3.90;;;;;;;;;;5085795;28;20960;-68
2022/09/25 12:45:34;;;;;;;9.10;3.90;;;;;;;;;;5088233;28;20564;-67
2022/09/25 12:48:03;;;;;;;3.47;3.13;;;;;;;;;;5087723;28;20424;-68
2022/09/25 12:50:32;;;;;;;3.83;3.63;;;;;;;;;;5089144;28;20412;-69
2022/09/25 12:53:01;;;;;;;4.03;3.73;;;;;;;;;;5087683;28;20436;-67
2022/09/25 12:55:27;;;;;;;3.70;3.23;;;;;;;;;;5087195;28;20460;-68
2022/09/25 12:57:59;;;;;;;3.60;3.50;;;;;;;;;;5087123;28;20533;-68
2022/09/25 13:00:27;;;;;;;4.90;3.47;;;;;;;;;;5082128;28;20503;-67
2022/09/25 13:03:06;;;;;;;5.53;4.07;;;;;;;;;;5088177;28;20502;-67
2022/09/25 13:05:33;;;;;;;5.13;3.40;;;;;;;;;;5087523;28;20460;-68
2022/09/25 13:08:06;;;;;;;4.20;3.20;;;;;;;;;;5087868;28;20936;-68
2022/09/25 13:10:40;;;;;;;5.67;3.53;;;;;;;;;;5088480;28;20427;-68
2022/09/25 13:13:18;;;;;;;3.77;3.47;;;;;;;;;;5088203;28;20821;-67
2022/09/25 13:15:47;;;;;;;4.03;3.87;;;;;;;;;;5083074;28;20499;-68
2022/09/25 13:18:18;;;;;;;4.37;3.70;;;;;;;;;;5080831;28;20417;-68
2022/09/25 13:20:47;;;;;;;4.00;3.83;;;;;;;;;;5083508;28;20547;-68
2022/09/25 13:23:26;;;;;;;3.57;3.37;;;;;;;;;;5090849;28;20971;-68
2022/09/25 13:25:59;;;;;;;4.90;4.70;;;;;;;;;;5092370;28;20439;-69
2022/09/25 13:28:30;;;;;;;4.90;4.60;;;;;;;;;;5089865;28;20413;-68
2022/09/25 13:31:01;;;;;;;5.40;5.03;;;;;;;;;;5088392;28;20443;-68
2022/09/25 13:33:27;;;;;;;4.27;4.07;;;;;;;;;;5091807;28;20424;-67
2022/09/25 13:36:06;;;;;;;5.30;4.77;;;;;;;;;;5092236;28;20484;-68
2022/09/25 13:41:23;;;;;;;4.40;4.10;;;;;;;;;;5089420;28;20489;-67
2022/09/25 13:44:09;;;;;;;4.70;4.50;;;;;;;;;;5087181;28;20462;-67
2022/09/25 13:46:36;;;;;;;4.87;4.47;;;;;;;;;;5088923;28;20427;-67
2022/09/25 13:49:24;;;;;;;5.10;4.27;;;;;;;;;;5090371;28;20825;-69
2022/09/25 13:51:50;;;;;;;8.43;3.97;;;;;;;;;;5079941;28;20481;-69
2022/09/25 13:54:16;;;;;;;3.80;3.67;;;;;;;;;;5089374;28;20448;-69
2022/09/25 13:56:45;;;;;;;5.83;5.43;;;;;;;;;;5090743;28;20515;-67
2022/09/25 13:59:12;;;;;;;5.40;5.00;;;;;;;;;;5085982;28;20481;-69
2022/09/25 14:01:40;;;;;;;7.50;5.93;;;;;;;;;;5061578;28;20476;-67
2022/09/25 14:04:21;;;;;;;6.13;4.30;;;;;;;;;;5059903;28;21016;-68
2022/09/25 14:06:51;;;;;;;3.87;3.67;;;;;;;;;;5060738;28;20435;-67
2022/09/25 14:09:18;;;;;;;4.93;4.30;;;;;;;;;;5064426;28;20433;-67
2022/09/25 14:12:12;;;;;;;5.50;5.10;;;;;;;;;;5067270;28;20437;-68
2022/09/25 14:14:41;;;;;;;3.90;3.73;;;;;;;;;;5053404;28;21094;-68
2022/09/25 14:17:12;;;;;;;3.90;3.80;;;;;;;;;;5069712;28;20507;-67
2022/09/25 14:19:39;;;;;;;5.43;4.27;;;;;;;;;;5084100;28;21086;-67
2022/09/25 14:22:06;;;;;;;7.27;4.30;;;;;;;;;;5070708;28;20547;-67
2022/09/25 14:24:33;;;;;;;8.83;4.40;;;;;;;;;;5084080;28;20440;-67
2022/09/25 14:27:00;;;;;;;4.10;3.80;;;;;;;;;;5067796;28;20525;-67
2022/09/25 14:29:29;;;;;;;9.33;3.40;;;;;;;;;;5065391;28;20506;-67
2022/09/25 14:32:14;;;;;;;3.70;3.50;;;;;;;;;;5066848;28;20846;-67
2022/09/25 14:35:00;;;;;;;4.47;3.73;;;;;;;;;;5069874;28;20992;-67
2022/09/25 14:37:34;;;;;;;3.67;3.33;;;;;;;;;;5069171;28;20781;-67
2022/09/25 14:40:18;;;;;;;3.20;3.10;;;;;;;;;;5069591;28;20599;-66
2022/09/25 14:42:55;;;;;;;2.40;2.40;;;;;;;;;;5066806;28;20511;-67
2022/09/25 14:45:36;;;;;;;4.80;4.50;;;;;;;;;;5070422;28;20892;-67
2022/09/25 14:48:03;;;;;;;4.20;4.00;;;;;;;;;;5070489;28;20462;-68
2022/09/25 14:50:32;;;;;;;7.33;2.90;;;;;;;;;;5068841;28;20428;-67
2022/09/25 14:52:59;;;;;;;2.60;2.50;;;;;;;;;;5068428;28;20583;-69
2022/09/25 14:55:28;;;;;;;5.03;3.67;;;;;;;;;;5067678;28;20441;-67
2022/09/25 14:57:57;;;;;;;4.00;3.90;;;;;;;;;;5084142;28;20436;-67
2022/09/25 15:00:24;;;;;;;6.43;6.03;;;;;;;;;;5082604;28;20476;-67
2022/09/25 15:02:51;;;;;;;13.60;12.17;;;;;;;;;;5088068;28;20485;-68
2022/09/25 15:05:18;;;;;;;6.10;5.80;;;;;;;;;;5089587;28;20493;-68
2022/09/25 15:07:46;;;;;;;4.77;4.50;;;;;;;;;;5086886;28;20937;-68
2022/09/25 15:10:24;;;;;;;3.50;3.40;;;;;;;;;;5089107;28;20423;-69